Anchorage/Merrill Field, Alaska
Current Conditions -  °F | °C
As of 1:22 PM on Sunday 21 Dec 2014 (Local Time) from PAMR Reporting Station
Light Snow Light Snow  
Wind Chill: 27°   Ceiling: 2300
Heat Index: 27°   Visibility: 1.5mi
Dew Point: 22°   Wind: 3mph
Humidity: 81%   Direction: 10°N
Pressure: 29.29"   Gusts: NA
Location:  61.21°N, 149.85°W
Report Text: PAMR 212222Z 01003KT 1 1/2SM -SN BR OVC023 M03/M06 A2929 RMK AO2 SNB22 P0000 T10281056
Loading
Personal Weather Stations






























Interactive Weather Map New forecast layout! Learn more

10-Day Weather Forecast

Advertisements
Track Severe Weather on mobile